Main page
METAR-TAF:

METAR-TAF

Airports :

Glasgow Airport

Glasgow, Montana, United States

latitude: 48-12-50N, longitude: 106-37-17W, elevation: 2293 ft

Current weather observation

The report was made 34 minutes ago, at 21:53 UTC
Wind 10 mph from the Southeast with gusts up to 18 mph
Temperature 91°F
Humidity 16%
Pressure 30.10 in. Hg
Visibility: 10 miles
Clear sky

METAR: KGGW 092153Z AUTO 14009G16KT 10SM CLR 33/04 A3010 RMK AO2 SLP177 T03330039

Time: 16:27 (22:27 UTC)

Forecast

The report was made 5 hours and 7 minutes ago, at 17:20 UTC
Forecast valid from 09 at 18 UTC to 10 at 18 UTC
Wind 15 mph from the East/Northeast
Visibility: 6 miles
Clear sky
From 10 at 0700 UTC
Wind 13 mph from the East
Visibility: 6 miles
Few clouds at a height of 14000 ft
From 10 at 1700 UTC
Wind 20 mph from the East/Southeast
Visibility: 6 miles
Few clouds at a height of 20000 ft

TAF: KGGW 091720Z 0918/1018 06013KT P6SM SKC FM100700 09011KT P6SM FEW140 FM101700 11017KT P6SM FEW200

Weather observations and forecasts of more than 4000 airports (METAR and TAF reports).

The available stations are represented by yellow and red dots on the map.

Hover mouse over dot to see the name of the station.

Then click to see weather observations and forecasts.

To change the map : click on the green buttons with a black cross to zoom in, on the green button with a dash to zoom out, or on the green arrows for adjacent maps.


METAR-TAF: